Time;durP1;ratioP1;P1;durP2;ratioP2;P2;SDS_P1;SDS_P2;PMS_P1;PMS_P2;Temp;Humidity;BMP_temperature;BMP_pressure;BME280_temperature;BME280_humidity;BME280_pressure;Samples;Min_cycle;Max_cycle;Signal;HPM_P1;HPM_P2
2023/12/12 00:02:12;;;;;;;5.75;4.88;;;;;;;;;;5015976;28;20053;-62
2023/12/12 00:04:38;;;;;;;6.38;5.35;;;;;;;;;;5016111;28;20068;-62
2023/12/12 00:07:06;;;;;;;5.90;4.97;;;;;;;;;;5016254;28;20112;-62
2023/12/12 00:09:31;;;;;;;5.38;3.72;;;;;;;;;;5016497;28;20120;-62
2023/12/12 00:11:57;;;;;;;5.88;4.55;;;;;;;;;;4998281;28;20046;-62
2023/12/12 00:14:22;;;;;;;5.78;5.15;;;;;;;;;;5014656;28;20467;-61
2023/12/12 00:16:47;;;;;;;7.35;5.18;;;;;;;;;;5016328;28;20022;-60
2023/12/12 00:19:13;;;;;;;4.95;4.30;;;;;;;;;;5016025;28;20026;-59
2023/12/12 00:21:38;;;;;;;4.32;3.47;;;;;;;;;;5016205;28;20037;-60
2023/12/12 00:24:04;;;;;;;4.88;4.43;;;;;;;;;;5016198;28;20068;-59
2023/12/12 00:26:29;;;;;;;8.65;5.45;;;;;;;;;;5015741;28;20030;-60
2023/12/12 00:28:54;;;;;;;9.63;6.60;;;;;;;;;;4998724;28;20360;-60
2023/12/12 00:31:20;;;;;;;7.50;5.15;;;;;;;;;;4995195;28;20046;-60
2023/12/12 00:33:45;;;;;;;5.78;5.20;;;;;;;;;;4995793;28;20133;-59
2023/12/12 00:36:11;;;;;;;6.57;5.13;;;;;;;;;;4995172;28;20062;-59
2023/12/12 00:38:37;;;;;;;9.05;5.20;;;;;;;;;;4996387;28;20045;-57
2023/12/12 00:41:06;;;;;;;7.22;5.57;;;;;;;;;;4995767;28;20033;-58
2023/12/12 00:43:32;;;;;;;8.90;5.57;;;;;;;;;;4995001;28;20035;-58
2023/12/12 00:45:58;;;;;;;6.50;4.65;;;;;;;;;;4995804;28;20114;-58
2023/12/12 00:48:23;;;;;;;5.78;5.10;;;;;;;;;;4995965;28;20037;-58
2023/12/12 00:50:48;;;;;;;5.10;4.60;;;;;;;;;;4994650;28;20034;-58
2023/12/12 00:53:14;;;;;;;6.97;5.70;;;;;;;;;;4995420;28;20045;-58
2023/12/12 00:55:39;;;;;;;4.35;3.38;;;;;;;;;;4995747;28;20089;-58
2023/12/12 00:58:05;;;;;;;7.18;5.47;;;;;;;;;;4995376;28;20123;-58
2023/12/12 01:00:30;;;;;;;7.32;5.50;;;;;;;;;;4995825;28;20354;-58
2023/12/12 01:02:56;;;;;;;5.60;5.03;;;;;;;;;;5010490;28;20392;-58
2023/12/12 01:05:21;;;;;;;8.13;5.45;;;;;;;;;;4995291;28;20026;-58
2023/12/12 01:07:47;;;;;;;10.07;5.82;;;;;;;;;;5010301;28;20433;-58
2023/12/12 01:10:12;;;;;;;5.82;5.07;;;;;;;;;;4995442;28;20547;-58
2023/12/12 01:12:38;;;;;;;7.13;5.88;;;;;;;;;;4995156;28;20412;-57
2023/12/12 01:15:03;;;;;;;8.88;5.65;;;;;;;;;;4995130;28;20033;-57
2023/12/12 01:17:32;;;;;;;6.15;5.40;;;;;;;;;;4993993;28;20015;-57
2023/12/12 01:19:57;;;;;;;5.05;4.55;;;;;;;;;;4995579;28;20080;-57
2023/12/12 01:22:24;;;;;;;2.83;2.58;;;;;;;;;;4995265;28;20026;-57
2023/12/12 01:24:49;;;;;;;8.35;5.50;;;;;;;;;;4977618;28;20425;-57
2023/12/12 01:27:22;;;;;;;6.72;4.55;;;;;;;;;;4994585;28;20065;-57
2023/12/12 01:29:47;;;;;;;5.97;4.10;;;;;;;;;;5010794;28;20382;-57
2023/12/12 01:32:13;;;;;;;6.18;5.00;;;;;;;;;;5014754;28;20034;-57
2023/12/12 01:34:38;;;;;;;5.25;4.72;;;;;;;;;;5015069;28;20081;-57
2023/12/12 01:37:03;;;;;;;5.57;4.65;;;;;;;;;;4997354;28;20064;-57
2023/12/12 01:39:29;;;;;;;6.55;5.18;;;;;;;;;;5014600;28;20024;-57
2023/12/12 01:41:54;;;;;;;6.10;4.63;;;;;;;;;;5014259;28;20099;-57
2023/12/12 01:44:20;;;;;;;4.65;4.25;;;;;;;;;;5012949;28;20373;-57
2023/12/12 01:46:46;;;;;;;5.40;4.85;;;;;;;;;;5014298;28;20056;-57
2023/12/12 01:49:12;;;;;;;4.85;4.45;;;;;;;;;;4997251;28;20026;-57
2023/12/12 01:51:38;;;;;;;6.40;4.82;;;;;;;;;;5014122;28;20411;-59
2023/12/12 01:54:05;;;;;;;7.50;5.85;;;;;;;;;;5013597;28;20062;-58
2023/12/12 01:56:31;;;;;;;5.63;4.88;;;;;;;;;;5014893;28;20451;-57
2023/12/12 01:58:57;;;;;;;6.50;4.82;;;;;;;;;;5014363;28;20033;-58
2023/12/12 02:01:23;;;;;;;6.00;5.10;;;;;;;;;;5026189;23;20112;-62
2023/12/12 02:03:51;;;;;;;4.97;4.20;;;;;;;;;;5026406;23;20034;-58
2023/12/12 02:09:02;;;;;;;5.93;4.90;;;;;;;;;;5019758;23;20045;-58
2023/12/12 02:11:29;;;;;;;5.47;4.95;;;;;;;;;;5014087;28;20076;-58
2023/12/12 02:13:55;;;;;;;4.93;4.53;;;;;;;;;;4996769;28;20046;-58
2023/12/12 02:16:20;;;;;;;4.63;4.20;;;;;;;;;;5014066;28;20026;-58
2023/12/12 02:18:47;;;;;;;4.10;3.67;;;;;;;;;;4996807;28;20018;-59
2023/12/12 02:21:19;;;;;;;5.53;4.80;;;;;;;;;;4996587;28;20034;-58
2023/12/12 02:23:47;;;;;;;6.25;5.38;;;;;;;;;;4993199;28;20030;-58
2023/12/12 02:26:12;;;;;;;5.13;4.65;;;;;;;;;;4994434;28;20469;-59
2023/12/12 02:28:39;;;;;;;5.38;4.80;;;;;;;;;;4976963;28;20118;-61
2023/12/12 02:31:04;;;;;;;5.13;4.15;;;;;;;;;;4994330;28;20041;-60
2023/12/12 02:33:29;;;;;;;7.03;5.82;;;;;;;;;;4976571;28;20035;-60
2023/12/12 02:35:55;;;;;;;6.70;5.45;;;;;;;;;;4994420;28;20037;-58
2023/12/12 02:38:20;;;;;;;6.65;5.78;;;;;;;;;;4993411;28;20037;-56
2023/12/12 02:40:45;;;;;;;6.88;6.18;;;;;;;;;;4994101;28;20034;-57
2023/12/12 02:43:11;;;;;;;8.45;6.90;;;;;;;;;;4994497;28;20113;-56
2023/12/12 02:45:36;;;;;;;7.93;6.45;;;;;;;;;;4994275;28;20030;-57
2023/12/12 02:48:02;;;;;;;9.15;6.75;;;;;;;;;;4993941;28;20026;-58
2023/12/12 02:50:27;;;;;;;8.93;6.50;;;;;;;;;;4994141;28;20034;-57
2023/12/12 02:52:52;;;;;;;7.22;6.38;;;;;;;;;;4994561;28;20034;-58
2023/12/12 02:55:18;;;;;;;8.02;6.43;;;;;;;;;;4994036;28;20054;-57
2023/12/12 02:57:43;;;;;;;6.10;5.50;;;;;;;;;;4994183;28;20042;-57
2023/12/12 03:00:09;;;;;;;7.10;5.90;;;;;;;;;;4993868;28;20061;-57
2023/12/12 03:02:35;;;;;;;6.13;5.35;;;;;;;;;;4993923;28;20440;-57
2023/12/12 03:05:00;;;;;;;6.70;6.03;;;;;;;;;;4994270;28;20032;-57
2023/12/12 03:07:25;;;;;;;6.88;5.90;;;;;;;;;;4976990;28;20047;-57
2023/12/12 03:09:51;;;;;;;7.20;5.93;;;;;;;;;;4978028;28;20438;-57
2023/12/12 03:12:16;;;;;;;8.15;5.85;;;;;;;;;;4977933;28;20546;-57
2023/12/12 03:14:42;;;;;;;7.55;5.70;;;;;;;;;;4977777;28;20042;-57
2023/12/12 03:17:07;;;;;;;8.93;6.25;;;;;;;;;;4978144;28;20073;-62
2023/12/12 03:19:33;;;;;;;7.97;5.70;;;;;;;;;;4978165;28;20084;-62
2023/12/12 03:21:58;;;;;;;5.80;5.22;;;;;;;;;;4977775;28;20385;-62
2023/12/12 03:24:24;;;;;;;5.47;4.97;;;;;;;;;;4978297;28;20029;-62
2023/12/12 03:26:49;;;;;;;5.90;5.32;;;;;;;;;;4977688;28;20140;-62
2023/12/12 03:29:14;;;;;;;5.18;4.43;;;;;;;;;;4977879;28;20045;-62
2023/12/12 03:31:40;;;;;;;7.05;5.13;;;;;;;;;;4978013;28;20042;-62
2023/12/12 03:34:05;;;;;;;6.00;5.15;;;;;;;;;;4978052;28;20039;-62
2023/12/12 03:36:31;;;;;;;7.05;5.60;;;;;;;;;;4977704;28;20033;-62
2023/12/12 03:38:56;;;;;;;4.80;4.32;;;;;;;;;;4977780;28;20462;-62
2023/12/12 03:41:23;;;;;;;6.10;5.53;;;;;;;;;;4977457;28;20042;-62
2023/12/12 03:43:49;;;;;;;5.95;4.88;;;;;;;;;;4977715;28;20043;-62
2023/12/12 03:46:15;;;;;;;6.32;5.40;;;;;;;;;;4977445;28;20049;-62
2023/12/12 03:48:40;;;;;;;8.95;6.50;;;;;;;;;;4977910;28;20483;-62
2023/12/12 03:51:11;;;;;;;6.95;5.72;;;;;;;;;;4977250;28;20105;-62
2023/12/12 03:53:38;;;;;;;8.15;6.85;;;;;;;;;;4976364;28;20035;-64
2023/12/12 03:56:04;;;;;;;9.90;7.05;;;;;;;;;;4977270;28;20041;-64
2023/12/12 03:58:29;;;;;;;11.57;7.25;;;;;;;;;;4977522;28;20023;-65
2023/12/12 04:00:55;;;;;;;8.52;6.80;;;;;;;;;;4977100;28;20073;-64
2023/12/12 04:03:20;;;;;;;9.40;6.88;;;;;;;;;;4977288;28;20081;-64
2023/12/12 04:05:45;;;;;;;7.95;6.47;;;;;;;;;;4976950;28;20504;-64
2023/12/12 04:08:12;;;;;;;8.65;6.13;;;;;;;;;;4988741;28;20035;-64
2023/12/12 04:10:37;;;;;;;7.75;6.00;;;;;;;;;;4995986;28;20026;-64
2023/12/12 04:13:03;;;;;;;6.05;5.43;;;;;;;;;;4995566;28;20032;-62
2023/12/12 04:15:28;;;;;;;7.15;6.00;;;;;;;;;;4996153;28;20487;-62
2023/12/12 04:17:54;;;;;;;8.27;6.07;;;;;;;;;;4996121;28;20464;-62
2023/12/12 04:20:19;;;;;;;9.20;6.22;;;;;;;;;;4996218;28;20022;-62
2023/12/12 04:22:45;;;;;;;6.30;5.50;;;;;;;;;;4996597;28;20030;-62
2023/12/12 04:25:11;;;;;;;6.43;5.55;;;;;;;;;;4996282;28;20097;-62
2023/12/12 04:27:36;;;;;;;6.65;5.05;;;;;;;;;;5000667;28;20028;-62
2023/12/12 04:30:02;;;;;;;7.55;5.07;;;;;;;;;;5015943;28;20113;-62
2023/12/12 04:32:27;;;;;;;5.25;4.80;;;;;;;;;;5016186;28;20021;-62
2023/12/12 04:34:52;;;;;;;6.38;5.75;;;;;;;;;;5016009;28;20482;-62
2023/12/12 04:37:18;;;;;;;6.30;5.28;;;;;;;;;;5015398;28;20100;-56
2023/12/12 04:39:44;;;;;;;5.03;4.50;;;;;;;;;;4998553;28;20523;-56
2023/12/12 04:42:11;;;;;;;5.90;4.72;;;;;;;;;;5015070;28;20083;-57
2023/12/12 04:44:36;;;;;;;6.35;4.97;;;;;;;;;;4997799;28;20060;-57
2023/12/12 04:47:02;;;;;;;5.53;4.45;;;;;;;;;;4997813;28;20029;-57
2023/12/12 04:49:28;;;;;;;4.55;4.20;;;;;;;;;;4997456;28;20161;-57
2023/12/12 04:51:53;;;;;;;3.65;3.35;;;;;;;;;;5013812;28;20174;-57
2023/12/12 04:54:18;;;;;;;3.70;3.40;;;;;;;;;;4995995;28;20395;-57
2023/12/12 04:56:44;;;;;;;4.00;3.00;;;;;;;;;;4996518;28;20088;-57
2023/12/12 04:59:09;;;;;;;3.67;3.38;;;;;;;;;;4996689;28;20030;-58
2023/12/12 05:01:34;;;;;;;3.85;3.50;;;;;;;;;;5013093;28;20026;-58
2023/12/12 05:04:00;;;;;;;3.55;3.05;;;;;;;;;;5013936;28;20112;-59
2023/12/12 05:06:25;;;;;;;2.85;2.65;;;;;;;;;;5014451;28;20108;-58
2023/12/12 05:08:51;;;;;;;2.47;2.33;;;;;;;;;;5014846;28;20042;-58
2023/12/12 05:11:16;;;;;;;2.75;2.53;;;;;;;;;;5015324;28;20048;-58
2023/12/12 05:13:41;;;;;;;3.70;2.88;;;;;;;;;;5014931;28;20371;-58
2023/12/12 05:16:08;;;;;;;3.05;2.67;;;;;;;;;;5014939;28;20030;-58
2023/12/12 05:18:33;;;;;;;3.67;3.30;;;;;;;;;;5014671;28;20025;-58
2023/12/12 05:20:58;;;;;;;3.47;3.17;;;;;;;;;;5014869;28;20087;-58
2023/12/12 05:23:24;;;;;;;3.30;3.00;;;;;;;;;;5014698;28;20479;-58
2023/12/12 05:25:49;;;;;;;3.38;3.00;;;;;;;;;;5014813;28;20453;-58
2023/12/12 05:28:17;;;;;;;3.28;2.80;;;;;;;;;;5014511;28;20460;-58
2023/12/12 05:30:44;;;;;;;3.97;2.92;;;;;;;;;;5014714;28;20048;-58
2023/12/12 05:33:09;;;;;;;2.85;2.50;;;;;;;;;;5014792;28;20033;-58
2023/12/12 05:35:35;;;;;;;3.08;2.88;;;;;;;;;;5014862;28;20037;-58
2023/12/12 05:38:03;;;;;;;3.05;2.75;;;;;;;;;;5014875;28;20026;-58
2023/12/12 05:40:28;;;;;;;3.78;2.92;;;;;;;;;;5015006;28;20062;-58
2023/12/12 05:42:54;;;;;;;3.50;3.30;;;;;;;;;;5014400;28;20480;-58
2023/12/12 05:45:19;;;;;;;3.00;2.78;;;;;;;;;;5015089;28;20032;-58
2023/12/12 05:47:45;;;;;;;3.17;2.88;;;;;;;;;;5014943;28;20088;-58
2023/12/12 05:50:11;;;;;;;2.47;2.28;;;;;;;;;;5014145;28;20026;-58
2023/12/12 05:52:37;;;;;;;4.45;3.80;;;;;;;;;;5014490;28;20065;-58
2023/12/12 05:55:05;;;;;;;4.25;3.85;;;;;;;;;;5014764;28;20041;-58
2023/12/12 05:57:33;;;;;;;4.45;3.35;;;;;;;;;;5013262;28;20053;-58
2023/12/12 05:59:59;;;;;;;3.60;3.30;;;;;;;;;;5014468;28;20026;-58
2023/12/12 06:02:24;;;;;;;4.45;3.45;;;;;;;;;;5014316;28;20044;-58
2023/12/12 06:04:50;;;;;;;3.70;3.22;;;;;;;;;;5013814;28;20029;-58
2023/12/12 06:07:16;;;;;;;4.03;3.72;;;;;;;;;;5013876;28;20041;-58
2023/12/12 06:09:41;;;;;;;3.78;3.47;;;;;;;;;;5014526;28;20058;-57
2023/12/12 06:12:07;;;;;;;3.20;2.92;;;;;;;;;;4996451;28;20069;-57
2023/12/12 06:14:32;;;;;;;4.55;4.07;;;;;;;;;;5014114;28;20479;-57
2023/12/12 06:16:59;;;;;;;4.72;4.32;;;;;;;;;;5013969;28;20037;-58
2023/12/12 06:19:24;;;;;;;4.13;3.78;;;;;;;;;;5013776;28;20072;-58
2023/12/12 06:21:53;;;;;;;4.13;3.70;;;;;;;;;;5013961;28;20101;-57
2023/12/12 06:24:18;;;;;;;5.22;4.32;;;;;;;;;;5014181;28;20038;-57
2023/12/12 06:26:44;;;;;;;4.25;3.15;;;;;;;;;;4980036;28;20109;-57
2023/12/12 06:29:09;;;;;;;3.85;3.50;;;;;;;;;;4996260;28;20050;-57
2023/12/12 06:31:35;;;;;;;5.85;3.72;;;;;;;;;;5014422;28;20435;-57
2023/12/12 06:34:01;;;;;;;4.20;3.80;;;;;;;;;;5013970;28;20097;-57
2023/12/12 06:36:26;;;;;;;4.57;4.20;;;;;;;;;;5014106;28;20460;-58
2023/12/12 06:38:51;;;;;;;4.78;4.05;;;;;;;;;;4996296;28;20427;-57
2023/12/12 06:41:17;;;;;;;4.28;3.95;;;;;;;;;;5015783;28;20029;-58
2023/12/12 06:43:42;;;;;;;4.70;4.20;;;;;;;;;;5017866;28;20465;-57
2023/12/12 06:46:08;;;;;;;4.93;4.43;;;;;;;;;;4999891;28;20038;-57
2023/12/12 06:48:35;;;;;;;5.00;4.50;;;;;;;;;;5017719;28;20104;-58
2023/12/12 06:51:00;;;;;;;4.90;4.55;;;;;;;;;;5017590;28;20033;-57
2023/12/12 06:53:25;;;;;;;5.22;4.18;;;;;;;;;;5017581;28;20101;-58
2023/12/12 06:55:51;;;;;;;4.45;4.05;;;;;;;;;;4999715;28;20468;-59
2023/12/12 06:58:16;;;;;;;4.30;3.90;;;;;;;;;;5017857;28;20078;-60
2023/12/12 07:00:42;;;;;;;4.45;4.03;;;;;;;;;;5017523;28;20082;-60
2023/12/12 07:03:09;;;;;;;5.45;4.93;;;;;;;;;;5017230;28;20083;-59
2023/12/12 07:05:36;;;;;;;7.13;5.22;;;;;;;;;;5017402;28;20029;-59
2023/12/12 07:08:02;;;;;;;8.13;5.70;;;;;;;;;;4999760;28;20054;-60
2023/12/12 07:10:27;;;;;;;8.55;5.68;;;;;;;;;;5017066;28;20032;-60
2023/12/12 07:12:53;;;;;;;5.53;5.00;;;;;;;;;;5029114;23;20402;-64
2023/12/12 07:15:36;;;;;;;7.97;5.50;;;;;;;;;;5036151;22;20054;-64
2023/12/12 07:18:01;;;;;;;5.93;4.40;;;;;;;;;;4955974;29;20435;-60
2023/12/12 07:20:27;;;;;;;7.00;5.43;;;;;;;;;;5004501;23;20127;-64
2023/12/12 07:22:52;;;;;;;9.32;6.18;;;;;;;;;;5016794;28;20041;-65
2023/12/12 07:25:17;;;;;;;7.07;5.18;;;;;;;;;;5016761;28;20052;-65
2023/12/12 07:27:43;;;;;;;4.75;4.20;;;;;;;;;;5016723;28;20120;-65
2023/12/12 07:30:10;;;;;;;5.70;4.03;;;;;;;;;;4999557;28;20034;-65
2023/12/12 07:32:35;;;;;;;4.93;4.45;;;;;;;;;;5016798;28;20022;-63
2023/12/12 07:35:01;;;;;;;5.00;4.38;;;;;;;;;;5015244;28;20128;-63
2023/12/12 07:37:26;;;;;;;3.58;3.28;;;;;;;;;;5015344;28;20049;-63
2023/12/12 07:39:51;;;;;;;5.63;4.47;;;;;;;;;;4999025;28;20388;-63
2023/12/12 07:42:17;;;;;;;4.97;4.47;;;;;;;;;;5016455;28;20439;-63
2023/12/12 07:44:42;;;;;;;6.60;4.93;;;;;;;;;;4998808;28;20472;-63
2023/12/12 07:47:08;;;;;;;5.85;4.38;;;;;;;;;;5016472;28;20034;-63
2023/12/12 07:49:33;;;;;;;5.75;4.60;;;;;;;;;;5016309;28;20089;-63
2023/12/12 07:51:59;;;;;;;5.97;4.45;;;;;;;;;;5015703;28;20461;-63
2023/12/12 07:54:24;;;;;;;6.25;4.70;;;;;;;;;;5016163;28;20095;-63
2023/12/12 07:56:50;;;;;;;4.40;3.95;;;;;;;;;;5014862;28;20467;-63
2023/12/12 07:59:15;;;;;;;5.57;4.63;;;;;;;;;;4998572;28;20022;-63
2023/12/12 08:01:40;;;;;;;7.03;5.25;;;;;;;;;;5016181;28;20014;-63
2023/12/12 08:04:06;;;;;;;5.55;4.78;;;;;;;;;;5016066;28;20164;-63
2023/12/12 08:06:32;;;;;;;4.45;3.97;;;;;;;;;;5015968;28;20030;-63
2023/12/12 08:08:58;;;;;;;8.25;5.75;;;;;;;;;;4998460;28;20115;-63
2023/12/12 08:11:27;;;;;;;8.10;6.00;;;;;;;;;;5015914;28;20026;-63
2023/12/12 08:13:54;;;;;;;7.20;5.25;;;;;;;;;;4998328;28;20034;-63
2023/12/12 08:16:19;;;;;;;8.68;5.82;;;;;;;;;;5015878;28;20033;-63
2023/12/12 08:18:44;;;;;;;6.93;5.63;;;;;;;;;;5015814;28;20022;-63
2023/12/12 08:21:10;;;;;;;9.00;6.30;;;;;;;;;;5015607;28;20074;-63
2023/12/12 08:23:37;;;;;;;8.23;6.72;;;;;;;;;;4998525;28;20033;-63
2023/12/12 08:26:03;;;;;;;7.95;5.95;;;;;;;;;;5014351;28;20034;-63
2023/12/12 08:28:28;;;;;;;7.93;6.22;;;;;;;;;;5015913;28;20026;-63
2023/12/12 08:30:53;;;;;;;6.68;5.50;;;;;;;;;;5015560;28;20042;-63
2023/12/12 08:33:20;;;;;;;6.75;5.10;;;;;;;;;;5015521;28;20026;-63
2023/12/12 08:35:45;;;;;;;6.35;5.20;;;;;;;;;;5015362;28;20507;-63
2023/12/12 08:38:11;;;;;;;5.95;5.40;;;;;;;;;;4997751;28;20057;-63
2023/12/12 08:40:37;;;;;;;7.70;5.78;;;;;;;;;;5015501;28;20034;-63
2023/12/12 08:43:02;;;;;;;6.30;5.57;;;;;;;;;;5015295;28;20037;-63
2023/12/12 08:45:29;;;;;;;6.65;5.40;;;;;;;;;;5015309;28;20046;-63
2023/12/12 08:47:54;;;;;;;7.32;5.43;;;;;;;;;;5015274;28;20415;-63
2023/12/12 08:50:20;;;;;;;6.15;5.35;;;;;;;;;;5015216;28;20029;-63
2023/12/12 08:52:45;;;;;;;6.50;5.57;;;;;;;;;;5015229;28;20053;-63
2023/12/12 08:55:11;;;;;;;5.88;5.00;;;;;;;;;;5015103;28;20038;-63
2023/12/12 08:57:36;;;;;;;5.55;5.03;;;;;;;;;;5013923;28;20022;-63
2023/12/12 09:00:03;;;;;;;7.25;5.32;;;;;;;;;;5015064;28;20056;-63
2023/12/12 09:02:29;;;;;;;6.68;5.20;;;;;;;;;;5014583;28;20026;-63
2023/12/12 09:04:55;;;;;;;6.97;6.15;;;;;;;;;;5014415;28;20085;-63
2023/12/12 09:07:20;;;;;;;7.43;6.00;;;;;;;;;;5014873;28;20125;-63
2023/12/12 09:09:45;;;;;;;7.72;5.43;;;;;;;;;;5014930;28;20033;-63
2023/12/12 09:12:11;;;;;;;5.38;3.80;;;;;;;;;;4997180;28;20037;-63
2023/12/12 09:14:36;;;;;;;8.60;4.90;;;;;;;;;;4997049;28;20041;-63
2023/12/12 09:17:02;;;;;;;4.53;4.10;;;;;;;;;;5014681;28;20037;-63
2023/12/12 09:19:27;;;;;;;4.43;3.92;;;;;;;;;;4997335;28;20037;-63
2023/12/12 09:21:54;;;;;;;5.50;4.72;;;;;;;;;;5014651;28;20057;-63
2023/12/12 09:24:19;;;;;;;6.47;4.18;;;;;;;;;;5014627;28;20037;-63
2023/12/12 09:26:45;;;;;;;3.83;3.50;;;;;;;;;;5014545;28;20033;-63
2023/12/12 09:29:10;;;;;;;4.82;3.75;;;;;;;;;;5014524;28;20033;-63
2023/12/12 09:31:36;;;;;;;6.80;4.10;;;;;;;;;;5014457;28;20034;-63
2023/12/12 09:34:02;;;;;;;2.75;2.55;;;;;;;;;;5014415;28;20046;-63
2023/12/12 09:36:27;;;;;;;4.22;3.65;;;;;;;;;;4996794;28;20026;-63
2023/12/12 09:38:52;;;;;;;4.93;3.92;;;;;;;;;;5014333;28;20025;-63
2023/12/12 09:41:22;;;;;;;4.35;3.65;;;;;;;;;;5014270;28;20391;-63
2023/12/12 09:43:48;;;;;;;5.28;3.83;;;;;;;;;;5014381;28;20026;-63
2023/12/12 09:46:14;;;;;;;5.15;4.60;;;;;;;;;;5014420;28;20453;-63
2023/12/12 09:48:40;;;;;;;4.63;3.65;;;;;;;;;;5014303;28;20022;-63
2023/12/12 09:51:06;;;;;;;4.35;3.95;;;;;;;;;;5014323;28;20044;-63
2023/12/12 09:53:35;;;;;;;4.55;3.92;;;;;;;;;;5014215;28;20032;-63
2023/12/12 09:56:04;;;;;;;4.43;4.03;;;;;;;;;;5014256;28;20054;-63
2023/12/12 09:58:30;;;;;;;5.30;3.90;;;;;;;;;;5014091;28;20030;-63
2023/12/12 10:00:55;;;;;;;6.18;4.53;;;;;;;;;;5014074;28;20038;-63
2023/12/12 10:03:21;;;;;;;5.90;4.63;;;;;;;;;;4996577;28;20101;-63
2023/12/12 10:05:51;;;;;;;6.30;4.95;;;;;;;;;;5013998;28;20113;-63
2023/12/12 10:08:18;;;;;;;7.40;4.68;;;;;;;;;;4996510;28;20041;-58
2023/12/12 10:10:44;;;;;;;7.70;5.43;;;;;;;;;;4996404;28;20431;-58
2023/12/12 10:13:09;;;;;;;9.13;5.93;;;;;;;;;;5012810;28;20030;-58
2023/12/12 10:15:34;;;;;;;7.63;5.18;;;;;;;;;;5013562;28;20468;-58
2023/12/12 10:18:00;;;;;;;8.70;4.82;;;;;;;;;;4996434;28;20475;-58
2023/12/12 10:20:26;;;;;;;7.80;5.93;;;;;;;;;;5013798;28;20038;-58
2023/12/12 10:22:53;;;;;;;7.85;5.93;;;;;;;;;;5014075;28;20036;-58
2023/12/12 10:25:18;;;;;;;8.82;6.15;;;;;;;;;;5013803;28;20038;-58
2023/12/12 10:27:44;;;;;;;8.02;6.15;;;;;;;;;;5013884;28;20088;-58
2023/12/12 10:30:13;;;;;;;8.43;6.68;;;;;;;;;;5013709;28;20354;-60
2023/12/12 10:32:38;;;;;;;8.40;7.03;;;;;;;;;;5013762;28;20041;-60
2023/12/12 10:35:04;;;;;;;8.82;6.65;;;;;;;;;;5013702;28;20029;-60
2023/12/12 10:37:30;;;;;;;8.85;6.88;;;;;;;;;;5013692;28;20105;-60
2023/12/12 10:39:56;;;;;;;10.55;7.88;;;;;;;;;;5013665;28;20018;-60
2023/12/12 10:42:22;;;;;;;7.85;6.63;;;;;;;;;;5013752;28;20025;-59
2023/12/12 10:44:50;;;;;;;7.47;6.22;;;;;;;;;;5013673;28;20181;-60
2023/12/12 10:47:16;;;;;;;6.50;5.07;;;;;;;;;;5013641;28;20041;-60
2023/12/12 10:49:43;;;;;;;6.85;5.60;;;;;;;;;;5013943;28;20420;-60
2023/12/12 10:52:10;;;;;;;6.00;5.18;;;;;;;;;;5013630;28;20395;-60
2023/12/12 10:54:36;;;;;;;4.35;3.92;;;;;;;;;;5013451;28;20026;-60
2023/12/12 10:57:02;;;;;;;5.53;3.05;;;;;;;;;;5013484;28;20491;-60
2023/12/12 10:59:28;;;;;;;4.93;4.07;;;;;;;;;;5013482;28;20045;-60
2023/12/12 11:01:54;;;;;;;5.30;3.88;;;;;;;;;;5013486;28;20353;-58
2023/12/12 11:04:21;;;;;;;4.22;3.80;;;;;;;;;;5013457;28;20032;-58
2023/12/12 11:06:46;;;;;;;4.30;3.83;;;;;;;;;;4995812;28;20431;-58
2023/12/12 11:09:13;;;;;;;4.68;3.70;;;;;;;;;;5013369;28;20178;-58
2023/12/12 11:11:47;;;;;;;4.13;3.70;;;;;;;;;;5013750;28;20493;-57
2023/12/12 11:14:13;;;;;;;5.43;3.92;;;;;;;;;;5013458;28;20112;-58
2023/12/12 11:16:38;;;;;;;3.30;3.00;;;;;;;;;;5013314;28;20104;-58
2023/12/12 11:19:03;;;;;;;4.18;3.42;;;;;;;;;;5013310;28;20025;-58
2023/12/12 11:21:42;;;;;;;6.43;3.85;;;;;;;;;;5013196;28;20042;-58
2023/12/12 11:24:07;;;;;;;6.07;4.05;;;;;;;;;;5013242;28;20080;-58
2023/12/12 11:26:34;;;;;;;4.38;3.67;;;;;;;;;;5014264;28;20038;-58
2023/12/12 11:28:59;;;;;;;5.05;4.15;;;;;;;;;;5016807;28;20026;-58
2023/12/12 11:31:28;;;;;;;4.72;4.13;;;;;;;;;;4982914;28;20586;-58
2023/12/12 11:34:21;;;;;;;4.45;4.05;;;;;;;;;;5016607;28;20121;-58
2023/12/12 11:36:50;;;;;;;5.35;4.03;;;;;;;;;;5015057;28;20041;-58
2023/12/12 11:39:45;;;;;;;5.07;4.05;;;;;;;;;;5016665;28;20152;-58
2023/12/12 11:42:17;;;;;;;5.07;4.60;;;;;;;;;;5016488;28;20034;-58
2023/12/12 11:44:46;;;;;;;16.98;9.25;;;;;;;;;;5016389;28;20038;-58
2023/12/12 11:47:15;;;;;;;12.25;7.47;;;;;;;;;;5016551;28;20025;-58
2023/12/12 11:49:40;;;;;;;7.07;6.30;;;;;;;;;;5016368;28;20033;-58
2023/12/12 11:52:07;;;;;;;11.07;7.97;;;;;;;;;;5016356;28;20533;-58
2023/12/12 11:54:32;;;;;;;16.00;10.98;;;;;;;;;;5016380;28;20033;-58
2023/12/12 11:56:59;;;;;;;19.77;12.93;;;;;;;;;;4998678;28;20053;-58
2023/12/12 11:59:25;;;;;;;24.35;14.30;;;;;;;;;;5016166;28;20025;-58
2023/12/12 12:01:51;;;;;;;16.55;10.73;;;;;;;;;;5016051;28;20429;-58
2023/12/12 12:04:17;;;;;;;11.73;8.07;;;;;;;;;;5016101;28;20123;-58
2023/12/12 12:06:43;;;;;;;14.27;9.23;;;;;;;;;;5016059;28;20030;-58
2023/12/12 12:09:09;;;;;;;16.83;10.40;;;;;;;;;;5016005;28;20038;-58
2023/12/12 12:11:42;;;;;;;14.68;10.98;;;;;;;;;;5016092;28;20070;-58
2023/12/12 12:14:07;;;;;;;13.05;10.95;;;;;;;;;;5016030;28;20050;-58
2023/12/12 12:16:33;;;;;;;12.93;8.55;;;;;;;;;;4998669;28;20544;-58
2023/12/12 12:19:18;;;;;;;13.93;10.45;;;;;;;;;;5015795;28;20531;-58
2023/12/12 12:21:48;;;;;;;15.95;10.57;;;;;;;;;;4998575;28;20396;-58
2023/12/12 12:24:13;;;;;;;16.10;11.85;;;;;;;;;;4998388;28;20544;-58
2023/12/12 12:26:38;;;;;;;14.45;11.10;;;;;;;;;;4998256;28;20171;-58
2023/12/12 12:29:10;;;;;;;14.45;9.70;;;;;;;;;;5015722;28;20427;-59
2023/12/12 12:31:38;;;;;;;12.82;9.02;;;;;;;;;;5027448;23;20446;-59
2023/12/12 12:34:15;;;;;;;13.05;9.25;;;;;;;;;;5015419;28;20417;-63
2023/12/12 12:36:42;;;;;;;11.13;8.05;;;;;;;;;;4998027;28;20465;-63
2023/12/12 12:39:09;;;;;;;13.48;8.57;;;;;;;;;;5015273;28;20460;-63
2023/12/12 12:41:39;;;;;;;;;;;;;;;;;;5015793;28;20104;-63
2023/12/12 12:44:04;;;;;;;12.05;8.80;;;;;;;;;;5015495;28;19909;-63
2023/12/12 12:46:30;;;;;;;15.60;10.45;;;;;;;;;;5015282;28;20535;-63
2023/12/12 12:48:55;;;;;;;15.77;9.55;;;;;;;;;;5015261;28;20052;-63
2023/12/12 12:51:21;;;;;;;15.13;9.48;;;;;;;;;;5015481;28;20052;-63
2023/12/12 12:53:46;;;;;;;14.70;9.02;;;;;;;;;;5015065;28;20033;-63
2023/12/12 12:56:11;;;;;;;11.77;8.57;;;;;;;;;;5015350;28;20480;-63
2023/12/12 12:58:37;;;;;;;12.00;7.85;;;;;;;;;;4997466;28;20030;-63
2023/12/12 13:01:04;;;;;;;11.70;7.97;;;;;;;;;;4997523;28;20034;-63
2023/12/12 13:03:31;;;;;;;11.32;8.20;;;;;;;;;;5015106;28;20121;-63
2023/12/12 13:05:57;;;;;;;10.77;8.10;;;;;;;;;;5014941;28;20061;-63
2023/12/12 13:08:22;;;;;;;15.35;9.15;;;;;;;;;;5015125;28;20041;-63
2023/12/12 13:10:48;;;;;;;13.65;9.32;;;;;;;;;;5014991;28;20038;-63
2023/12/12 13:13:13;;;;;;;14.98;8.57;;;;;;;;;;4997297;28;20072;-63
2023/12/12 13:15:39;;;;;;;14.20;9.02;;;;;;;;;;5014560;28;20038;-63
2023/12/12 13:18:05;;;;;;;16.10;8.77;;;;;;;;;;5013600;28;20515;-63
2023/12/12 13:20:31;;;;;;;12.75;8.48;;;;;;;;;;5013672;28;20029;-64
2023/12/12 13:22:56;;;;;;;13.02;8.35;;;;;;;;;;5013600;28;20026;-63
2023/12/12 13:25:22;;;;;;;15.25;10.10;;;;;;;;;;5013786;28;20106;-63
2023/12/12 13:27:48;;;;;;;15.55;9.35;;;;;;;;;;5012174;28;20124;-63
2023/12/12 13:30:13;;;;;;;15.13;9.18;;;;;;;;;;5013368;28;20034;-63
2023/12/12 13:32:40;;;;;;;17.73;10.32;;;;;;;;;;5013541;28;20033;-63
2023/12/12 13:35:06;;;;;;;13.70;9.32;;;;;;;;;;5013454;28;20030;-63
2023/12/12 13:37:31;;;;;;;14.52;9.57;;;;;;;;;;5013355;28;20128;-58
2023/12/12 13:39:57;;;;;;;13.63;9.13;;;;;;;;;;5013720;28;20054;-58
2023/12/12 13:42:23;;;;;;;11.43;8.00;;;;;;;;;;5012692;28;20472;-58
2023/12/12 13:44:48;;;;;;;11.30;7.93;;;;;;;;;;4996254;28;20041;-58
2023/12/12 13:47:15;;;;;;;12.18;7.93;;;;;;;;;;4996355;28;20026;-56
2023/12/12 13:49:40;;;;;;;12.48;7.93;;;;;;;;;;5013609;28;20026;-57
2023/12/12 13:52:05;;;;;;;15.98;10.52;;;;;;;;;;4996953;28;20448;-57
2023/12/12 13:54:31;;;;;;;18.75;11.68;;;;;;;;;;4997415;28;20044;-57
2023/12/12 13:56:57;;;;;;;19.90;11.90;;;;;;;;;;5013955;28;20010;-57
2023/12/12 13:59:22;;;;;;;18.35;12.40;;;;;;;;;;5013362;28;20040;-57
2023/12/12 14:01:48;;;;;;;20.45;12.93;;;;;;;;;;5012820;28;20033;-57
2023/12/12 14:04:13;;;;;;;23.13;15.32;;;;;;;;;;5012418;28;20404;-57
2023/12/12 14:06:40;;;;;;;30.50;19.70;;;;;;;;;;5012095;28;20030;-57
2023/12/12 14:09:06;;;;;;;32.05;21.75;;;;;;;;;;5011890;28;20100;-57
2023/12/12 14:11:31;;;;;;;28.23;19.67;;;;;;;;;;4994903;28;20508;-57
2023/12/12 14:13:57;;;;;;;28.55;17.90;;;;;;;;;;4996139;28;20063;-57
2023/12/12 14:16:22;;;;;;;30.40;18.33;;;;;;;;;;5014034;28;20118;-57
2023/12/12 14:18:47;;;;;;;27.92;17.88;;;;;;;;;;5013834;28;20033;-57
2023/12/12 14:21:13;;;;;;;28.17;18.65;;;;;;;;;;5013822;28;20040;-57
2023/12/12 14:23:41;;;;;;;54.97;31.50;;;;;;;;;;4996168;28;20030;-57
2023/12/12 14:26:07;;;;;;;55.85;34.35;;;;;;;;;;5013490;28;20105;-57
2023/12/12 14:28:32;;;;;;;46.40;29.30;;;;;;;;;;5013007;28;20126;-63
2023/12/12 14:30:58;;;;;;;51.85;33.28;;;;;;;;;;4990425;28;20097;-63
2023/12/12 14:33:23;;;;;;;51.72;33.47;;;;;;;;;;4983223;28;20038;-63
2023/12/12 14:35:49;;;;;;;47.67;31.65;;;;;;;;;;4987149;28;20113;-63